Time;durP1;ratioP1;P1;durP2;ratioP2;P2;SDS_P1;SDS_P2;PMS_P1;PMS_P2;Temp;Humidity;BMP_temperature;BMP_pressure;BME280_temperature;BME280_humidity;BME280_pressure;Samples;Min_cycle;Max_cycle;Signal;HPM_P1;HPM_P2
2022/11/28 00:01:51;;;;;;;9.15;7.00;;;6.90;99.90;;;;;;5073138;28;20513;-68
2022/11/28 00:04:16;;;;;;;10.48;7.20;;;6.90;99.90;;;;;;5072993;28;20111;-68
2022/11/28 00:06:45;;;;;;;7.65;6.38;;;6.90;99.90;;;;;;5073029;28;20071;-68
2022/11/28 00:09:12;;;;;;;9.13;6.38;;;6.90;99.90;;;;;;5072869;28;20040;-68
2022/11/28 00:11:42;;;;;;;8.73;6.45;;;6.90;99.90;;;;;;5073184;28;20059;-68
2022/11/28 00:14:08;;;;;;;8.07;6.32;;;6.90;99.90;;;;;;5072789;28;20036;-68
2022/11/28 00:16:34;;;;;;;8.35;6.55;;;6.90;99.90;;;;;;5072829;28;20043;-68
2022/11/28 00:19:01;;;;;;;9.10;5.88;;;6.90;99.90;;;;;;5073039;28;20051;-68
2022/11/28 00:21:27;;;;;;;7.85;6.18;;;6.90;99.90;;;;;;5072739;28;20386;-68
2022/11/28 00:23:52;;;;;;;8.65;6.35;;;6.90;99.90;;;;;;5072588;28;20096;-68
2022/11/28 00:26:24;;;;;;;10.82;7.00;;;6.90;99.90;;;;;;5072618;28;20040;-68
2022/11/28 00:28:50;;;;;;;7.90;5.60;;;6.90;99.90;;;;;;5072569;28;20493;-68
2022/11/28 00:31:19;;;;;;;11.18;6.80;;;6.90;99.90;;;;;;5072794;28;20049;-68
2022/11/28 00:33:45;;;;;;;7.43;5.97;;;7.00;99.90;;;;;;5072383;28;20508;-68
2022/11/28 00:36:11;;;;;;;11.30;6.10;;;7.00;99.90;;;;;;5072453;28;20119;-68
2022/11/28 00:38:37;;;;;;;8.68;6.00;;;7.00;99.90;;;;;;5072675;28;20041;-68
2022/11/28 00:41:18;;;;;;;8.70;5.80;;;7.00;99.90;;;;;;5072402;28;20405;-68
2022/11/28 00:43:45;;;;;;;9.75;5.75;;;7.00;99.90;;;;;;5072539;28;20110;-68
2022/11/28 00:46:12;;;;;;;7.75;5.80;;;7.00;99.90;;;;;;5072167;28;20490;-68
2022/11/28 00:48:38;;;;;;;10.88;6.50;;;7.10;99.90;;;;;;5072124;28;20047;-68
2022/11/28 00:51:14;;;;;;;9.38;6.00;;;7.10;99.90;;;;;;5072195;28;20036;-68
2022/11/28 00:53:41;;;;;;;10.98;6.00;;;7.00;99.90;;;;;;5055241;28;20040;-68
2022/11/28 00:56:09;;;;;;;10.93;6.10;;;7.10;99.90;;;;;;5072389;28;20048;-68
2022/11/28 00:58:35;;;;;;;11.27;6.47;;;7.10;99.90;;;;;;5072089;28;20048;-68
2022/11/28 01:01:17;;;;;;;8.35;5.72;;;7.10;99.90;;;;;;5072331;28;20036;-68
2022/11/28 01:03:43;;;;;;;7.97;5.60;;;7.10;99.90;;;;;;5071976;28;20049;-68
2022/11/28 01:06:10;;;;;;;8.13;6.00;;;7.10;99.90;;;;;;5071985;28;20055;-68
2022/11/28 01:08:36;;;;;;;9.73;5.68;;;7.10;99.90;;;;;;5071907;28;20040;-68
2022/11/28 01:11:03;;;;;;;8.95;6.25;;;7.10;99.90;;;;;;5072213;28;20038;-68
2022/11/28 01:13:28;;;;;;;10.18;6.20;;;7.10;99.90;;;;;;5073106;28;20105;-68
2022/11/28 01:15:55;;;;;;;8.98;6.38;;;7.10;99.90;;;;;;5071884;28;20048;-68
2022/11/28 01:18:20;;;;;;;8.57;5.53;;;7.10;99.90;;;;;;5071845;28;20033;-68
2022/11/28 01:20:46;;;;;;;10.50;6.10;;;7.10;99.90;;;;;;5071880;28;20067;-68
2022/11/28 01:23:11;;;;;;;13.45;6.40;;;7.10;99.90;;;;;;5071722;28;20040;-68
2022/11/28 01:25:37;;;;;;;10.80;5.82;;;7.10;99.90;;;;;;5072051;28;20048;-68
2022/11/28 01:28:03;;;;;;;7.28;6.10;;;7.20;99.90;;;;;;5072087;28;20044;-68
2022/11/28 01:30:28;;;;;;;9.57;6.45;;;7.10;99.90;;;;;;5071674;28;20498;-68
2022/11/28 01:32:54;;;;;;;8.73;5.75;;;7.20;99.90;;;;;;5071659;28;20032;-68
2022/11/28 01:35:19;;;;;;;9.82;6.38;;;7.20;99.90;;;;;;5071706;28;20047;-68
2022/11/28 01:37:45;;;;;;;11.55;6.15;;;7.20;99.90;;;;;;5071944;28;20124;-68
2022/11/28 01:40:11;;;;;;;9.68;5.70;;;7.20;99.90;;;;;;5071661;28;20079;-68
2022/11/28 01:42:37;;;;;;;10.07;5.95;;;7.20;99.90;;;;;;5072254;28;20381;-69
2022/11/28 01:45:14;;;;;;;11.23;7.25;;;7.20;99.90;;;;;;5071498;28;20036;-68
2022/11/28 01:47:40;;;;;;;12.50;6.57;;;7.20;99.90;;;;;;5071660;28;20127;-68
2022/11/28 01:50:06;;;;;;;12.05;6.25;;;7.20;99.90;;;;;;5071477;28;20067;-68
2022/11/28 01:52:33;;;;;;;10.40;6.80;;;7.20;99.90;;;;;;5071429;28;20033;-68
2022/11/28 01:55:01;;;;;;;11.60;7.30;;;7.20;99.90;;;;;;5072807;28;20115;-68
2022/11/28 01:57:28;;;;;;;11.25;6.78;;;7.20;99.90;;;;;;5071489;28;20120;-68
2022/11/28 02:00:08;;;;;;;11.23;6.40;;;7.20;99.90;;;;;;5071472;28;20044;-68
2022/11/28 02:02:38;;;;;;;12.18;7.32;;;7.20;99.90;;;;;;5071590;28;20066;-68
2022/11/28 02:05:04;;;;;;;9.68;6.95;;;7.20;99.90;;;;;;5071449;28;20528;-68
2022/11/28 02:07:30;;;;;;;10.15;6.50;;;7.20;99.90;;;;;;5075200;28;20120;-68
2022/11/28 02:09:56;;;;;;;11.98;7.03;;;7.20;99.90;;;;;;5076019;28;20124;-68
2022/11/28 02:12:32;;;;;;;10.52;7.32;;;7.20;99.90;;;;;;5075138;28;20111;-68
2022/11/28 02:15:31;;;;;;;9.32;6.85;;;7.20;99.90;;;;;;5075477;28;20505;-68
2022/11/28 02:18:24;;;;;;;9.68;6.65;;;7.30;99.90;;;;;;5075133;28;20083;-68
2022/11/28 02:21:32;;;;;;;8.07;6.05;;;7.20;99.90;;;;;;5075364;28;20580;-68
2022/11/28 02:24:09;;;;;;;11.35;6.72;;;7.30;99.90;;;;;;5074979;28;20048;-68
2022/11/28 02:27:03;;;;;;;8.63;6.50;;;7.20;99.90;;;;;;5075274;28;20045;-68
2022/11/28 02:29:41;;;;;;;7.75;6.53;;;7.30;99.90;;;;;;5074877;28;20048;-68
2022/11/28 02:32:21;;;;;;;10.05;6.05;;;7.30;99.90;;;;;;5074915;28;20127;-68
2022/11/28 02:35:07;;;;;;;8.68;6.78;;;7.30;99.90;;;;;;5075100;28;20044;-68
2022/11/28 02:37:47;;;;;;;10.52;6.15;;;7.30;99.90;;;;;;5075034;28;20048;-68
2022/11/28 02:40:38;;;;;;;10.20;6.38;;;7.30;99.90;;;;;;5074756;28;20044;-68
2022/11/28 02:43:09;;;;;;;9.13;6.88;;;7.30;99.90;;;;;;5069165;28;20410;-68
2022/11/28 02:45:55;;;;;;;11.77;7.43;;;7.30;99.90;;;;;;5074540;28;20086;-68
2022/11/28 02:48:51;;;;;;;10.55;6.82;;;7.30;99.90;;;;;;5074595;28;20135;-68
2022/11/28 02:51:40;;;;;;;10.50;7.30;;;7.30;99.90;;;;;;5074565;28;20106;-68
2022/11/28 02:54:10;;;;;;;11.65;7.15;;;7.30;99.90;;;;;;5074444;28;20091;-68
2022/11/28 02:56:36;;;;;;;11.15;7.32;;;7.30;99.90;;;;;;5075799;28;20041;-68
2022/11/28 02:59:03;;;;;;;10.65;7.35;;;7.30;99.90;;;;;;5074635;28;20036;-68
2022/11/28 03:01:35;;;;;;;11.25;7.70;;;7.40;99.90;;;;;;5074293;28;20101;-68
2022/11/28 03:04:29;;;;;;;15.32;8.90;;;7.40;99.90;;;;;;5074253;28;20075;-68
2022/11/28 03:07:24;;;;;;;13.57;8.02;;;7.40;99.90;;;;;;5074551;28;20044;-68
2022/11/28 03:10:02;;;;;;;13.80;8.15;;;7.40;99.90;;;;;;5074297;28;20555;-68
2022/11/28 03:12:50;;;;;;;13.13;7.97;;;7.30;99.90;;;;;;5074120;28;20040;-68
2022/11/28 03:15:21;;;;;;;12.93;9.18;;;7.40;99.90;;;;;;5074372;28;20420;-68
2022/11/28 03:18:11;;;;;;;16.83;9.23;;;7.30;99.90;;;;;;5074296;28;20186;-68
2022/11/28 03:20:48;;;;;;;12.07;9.38;;;7.40;99.90;;;;;;5074285;28;20040;-68
2022/11/28 03:23:19;;;;;;;15.75;9.32;;;7.30;99.90;;;;;;5073935;28;20050;-68
2022/11/28 03:26:16;;;;;;;13.25;9.50;;;7.30;99.90;;;;;;5073953;28;20048;-68
2022/11/28 03:28:53;;;;;;;12.82;9.48;;;7.40;99.90;;;;;;5073811;28;20493;-68
2022/11/28 03:31:23;;;;;;;15.32;9.93;;;7.40;99.90;;;;;;5073837;28;20047;-68
2022/11/28 03:33:59;;;;;;;16.10;10.82;;;7.40;99.90;;;;;;5073687;28;20044;-68
2022/11/28 03:36:33;;;;;;;15.45;11.30;;;7.40;99.90;;;;;;5073727;28;20036;-68
2022/11/28 03:39:07;;;;;;;15.90;10.25;;;7.40;99.90;;;;;;5073669;28;20056;-68
2022/11/28 03:41:41;;;;;;;15.05;11.18;;;7.40;99.90;;;;;;5073859;28;20490;-68
2022/11/28 03:44:13;;;;;;;16.45;11.48;;;7.40;99.90;;;;;;5073522;28;20115;-68
2022/11/28 03:46:45;;;;;;;17.35;11.52;;;7.40;99.90;;;;;;5073701;28;20040;-68
2022/11/28 03:49:15;;;;;;;19.45;11.73;;;7.40;99.90;;;;;;5073397;28;20506;-68
2022/11/28 03:51:47;;;;;;;14.15;12.23;;;7.50;99.90;;;;;;5073416;28;20056;-68
2022/11/28 03:54:18;;;;;;;14.88;11.95;;;7.40;99.90;;;;;;5073284;28;20041;-68
2022/11/28 03:57:11;;;;;;;15.73;12.27;;;7.50;99.90;;;;;;5073267;28;20051;-68
2022/11/28 03:59:42;;;;;;;17.42;12.40;;;7.50;99.90;;;;;;5073307;28;20083;-68
2022/11/28 04:02:13;;;;;;;15.63;12.05;;;7.50;99.90;;;;;;5073501;28;20048;-68
2022/11/28 04:04:53;;;;;;;19.10;12.95;;;7.50;99.90;;;;;;5073871;28;20040;-68
2022/11/28 04:07:45;;;;;;;17.42;11.55;;;7.50;99.90;;;;;;5073105;28;20497;-68
2022/11/28 04:10:32;;;;;;;16.98;13.02;;;7.50;99.90;;;;;;5056356;28;20048;-68
2022/11/28 04:13:24;;;;;;;21.65;13.05;;;7.50;99.90;;;;;;5073212;28;20036;-68
2022/11/28 04:16:03;;;;;;;18.63;13.80;;;7.50;99.90;;;;;;5056287;28;20048;-68
2022/11/28 04:18:48;;;;;;;20.02;14.18;;;7.50;99.90;;;;;;5073136;28;20094;-68
2022/11/28 04:21:17;;;;;;;14.50;12.15;;;7.50;99.90;;;;;;5073095;28;20420;-68
2022/11/28 04:23:44;;;;;;;16.73;13.55;;;7.50;99.90;;;;;;5072671;28;20123;-68
2022/11/28 04:26:18;;;;;;;17.75;13.63;;;7.60;99.90;;;;;;5072661;28;20094;-68
2022/11/28 04:28:46;;;;;;;19.40;13.45;;;7.60;99.90;;;;;;5072410;28;20044;-68
2022/11/28 04:31:14;;;;;;;18.50;14.63;;;7.60;99.90;;;;;;5072575;28;20051;-68
2022/11/28 04:33:43;;;;;;;20.13;15.05;;;7.60;99.90;;;;;;5072451;28;20044;-68
2022/11/28 04:36:10;;;;;;;17.73;15.32;;;7.60;99.90;;;;;;5072474;28;20452;-68
2022/11/28 04:38:38;;;;;;;24.45;16.52;;;7.60;99.90;;;;;;5072478;28;20040;-68
2022/11/28 04:41:13;;;;;;;18.92;15.20;;;7.60;99.90;;;;;;5072407;28;20094;-68
2022/11/28 04:43:45;;;;;;;19.02;13.60;;;7.60;99.90;;;;;;5072315;28;20048;-68
2022/11/28 04:46:17;;;;;;;15.60;13.77;;;7.60;99.90;;;;;;5072518;28;20040;-68
2022/11/28 04:48:43;;;;;;;17.23;13.50;;;7.60;99.90;;;;;;5072320;28;20051;-68
2022/11/28 04:51:26;;;;;;;16.15;13.40;;;7.60;99.90;;;;;;5072175;28;20044;-68
2022/11/28 04:54:01;;;;;;;16.05;13.82;;;7.70;99.90;;;;;;5072499;28;20055;-68
2022/11/28 04:56:37;;;;;;;17.75;14.75;;;7.70;99.90;;;;;;5072263;28;20075;-68
2022/11/28 04:59:05;;;;;;;22.50;15.57;;;7.70;99.90;;;;;;5072170;28;20041;-68
2022/11/28 05:01:32;;;;;;;17.83;14.25;;;7.70;99.90;;;;;;5073644;28;20044;-68
2022/11/28 05:03:58;;;;;;;17.48;15.38;;;7.70;99.90;;;;;;5072023;28;20051;-68
2022/11/28 05:06:34;;;;;;;15.48;13.73;;;7.70;99.90;;;;;;5072099;28;20040;-68
2022/11/28 05:09:00;;;;;;;20.77;17.42;;;7.70;99.90;;;;;;5055485;28;20043;-68
2022/11/28 05:11:26;;;;;;;18.80;16.45;;;7.70;99.90;;;;;;5071989;28;20044;-68
2022/11/28 05:13:52;;;;;;;17.67;15.63;;;7.70;99.90;;;;;;5055432;28;20043;-68
2022/11/28 05:16:18;;;;;;;19.33;16.33;;;7.70;99.90;;;;;;5072160;28;20151;-68
2022/11/28 05:18:44;;;;;;;19.08;15.95;;;7.70;99.90;;;;;;5071849;28;20497;-68
2022/11/28 05:21:10;;;;;;;21.55;16.42;;;7.70;99.90;;;;;;5073665;28;20047;-68
2022/11/28 05:23:37;;;;;;;18.73;15.52;;;7.70;99.90;;;;;;5072039;28;20119;-68
2022/11/28 05:26:16;;;;;;;17.02;14.65;;;7.70;99.90;;;;;;5072049;28;20493;-68
2022/11/28 05:28:46;;;;;;;18.95;14.85;;;7.70;99.90;;;;;;5071788;28;20047;-68
2022/11/28 05:31:12;;;;;;;21.38;14.88;;;7.70;99.90;;;;;;5071724;28;20078;-68
2022/11/28 05:33:38;;;;;;;18.50;14.13;;;7.80;99.90;;;;;;5071716;28;20045;-68
2022/11/28 05:36:06;;;;;;;17.70;14.38;;;7.80;99.90;;;;;;5071952;28;20033;-68
2022/11/28 05:38:33;;;;;;;16.15;13.55;;;7.80;99.90;;;;;;5071894;28;20051;-68
2022/11/28 05:40:59;;;;;;;17.45;13.40;;;7.80;99.90;;;;;;5073066;28;20415;-68
2022/11/28 05:43:25;;;;;;;16.33;12.77;;;7.80;99.90;;;;;;5059074;28;20040;-68
2022/11/28 05:45:51;;;;;;;16.90;13.20;;;7.80;99.90;;;;;;5075908;28;20060;-68
2022/11/28 05:48:17;;;;;;;15.10;13.27;;;7.80;99.90;;;;;;5075782;28;20049;-68
2022/11/28 05:50:42;;;;;;;18.10;12.68;;;7.80;99.90;;;;;;5075613;28;20048;-68
2022/11/28 05:53:09;;;;;;;15.55;12.55;;;7.80;99.90;;;;;;5075623;28;20050;-68
2022/11/28 05:55:37;;;;;;;14.15;12.35;;;7.80;99.90;;;;;;5075616;28;20036;-68
2022/11/28 05:58:03;;;;;;;16.70;13.38;;;7.80;99.90;;;;;;5076774;28;20048;-68
2022/11/28 06:00:28;;;;;;;15.45;13.52;;;7.80;99.90;;;;;;5075543;28;20044;-68
2022/11/28 06:02:54;;;;;;;19.30;13.25;;;7.80;99.90;;;;;;5075413;28;20078;-68
2022/11/28 06:05:19;;;;;;;14.57;12.30;;;7.90;99.90;;;;;;5075387;28;20047;-68
2022/11/28 06:07:45;;;;;;;15.77;13.82;;;7.90;99.90;;;;;;5075398;28;20056;-68
2022/11/28 06:10:10;;;;;;;18.20;14.23;;;7.80;99.90;;;;;;5075470;28;20045;-68
2022/11/28 06:12:36;;;;;;;16.85;13.15;;;7.80;99.90;;;;;;5075194;28;20044;-68
2022/11/28 06:15:02;;;;;;;14.18;12.70;;;7.80;99.90;;;;;;5058534;28;20039;-68
2022/11/28 06:17:27;;;;;;;13.65;12.07;;;7.90;99.90;;;;;;5075219;28;20045;-68
2022/11/28 06:19:53;;;;;;;16.00;14.05;;;7.80;99.90;;;;;;5075124;28;20044;-68
2022/11/28 06:22:18;;;;;;;15.88;13.95;;;7.80;99.90;;;;;;5075041;28;20040;-68
2022/11/28 06:24:44;;;;;;;18.92;14.18;;;7.90;99.90;;;;;;5074959;28;20049;-69
2022/11/28 06:27:09;;;;;;;16.90;12.98;;;7.90;99.90;;;;;;5074993;28;20045;-69
2022/11/28 06:29:35;;;;;;;17.58;14.05;;;7.90;99.90;;;;;;5075091;28;20040;-69
2022/11/28 06:32:00;;;;;;;15.35;13.35;;;7.90;99.90;;;;;;5074877;28;20044;-69
2022/11/28 06:34:26;;;;;;;18.13;13.85;;;7.90;99.90;;;;;;5074734;28;20048;-69
2022/11/28 06:36:52;;;;;;;17.08;14.45;;;7.90;99.90;;;;;;5074791;28;20082;-69
2022/11/28 06:39:17;;;;;;;19.90;14.38;;;7.90;99.90;;;;;;5074809;28;20089;-69
2022/11/28 06:41:43;;;;;;;16.95;13.88;;;7.90;99.90;;;;;;5074691;28;20049;-69
2022/11/28 06:44:13;;;;;;;17.90;15.40;;;7.90;99.90;;;;;;5074616;28;20048;-69
2022/11/28 06:46:38;;;;;;;15.95;13.98;;;7.90;99.90;;;;;;5074601;28;20052;-69
2022/11/28 06:49:04;;;;;;;16.73;14.80;;;7.90;99.90;;;;;;5074522;28;20044;-69
2022/11/28 06:51:30;;;;;;;16.63;14.70;;;7.90;99.90;;;;;;5074133;28;20123;-69
2022/11/28 06:53:56;;;;;;;16.88;14.65;;;7.90;99.90;;;;;;5074455;28;20170;-69
2022/11/28 06:56:22;;;;;;;17.80;14.60;;;7.90;99.90;;;;;;5074738;28;20033;-69
2022/11/28 06:58:56;;;;;;;15.98;14.15;;;7.90;99.90;;;;;;5075983;28;20540;-69
2022/11/28 07:01:24;;;;;;;20.10;15.75;;;7.90;99.90;;;;;;5074494;28;20048;-68
2022/11/28 07:03:50;;;;;;;18.95;15.15;;;7.90;99.90;;;;;;5074252;28;20052;-68
2022/11/28 07:06:18;;;;;;;17.27;15.40;;;7.90;99.90;;;;;;5074289;28;20044;-68
2022/11/28 07:08:44;;;;;;;17.17;14.15;;;7.90;99.90;;;;;;5074259;28;20044;-68
2022/11/28 07:11:18;;;;;;;21.20;15.95;;;7.90;99.90;;;;;;5074118;28;20040;-68
2022/11/28 07:13:44;;;;;;;15.85;14.15;;;7.90;99.90;;;;;;5074057;28;20036;-68
2022/11/28 07:16:16;;;;;;;17.83;14.95;;;7.90;99.90;;;;;;5074067;28;20394;-68
2022/11/28 07:18:43;;;;;;;18.75;14.30;;;7.90;99.90;;;;;;5074075;28;20041;-68
2022/11/28 07:21:08;;;;;;;16.98;13.48;;;7.90;99.90;;;;;;5074016;28;20398;-68
2022/11/28 07:23:34;;;;;;;19.48;13.13;;;7.90;99.90;;;;;;5073901;28;20094;-68
2022/11/28 07:26:02;;;;;;;16.40;13.88;;;7.90;99.90;;;;;;5073899;28;20124;-68
2022/11/28 07:28:29;;;;;;;16.15;12.70;;;7.90;99.90;;;;;;5074068;28;20040;-68
2022/11/28 07:31:06;;;;;;;15.82;12.07;;;7.90;99.90;;;;;;5073795;28;20047;-68
2022/11/28 07:33:34;;;;;;;16.02;13.35;;;8.00;99.90;;;;;;5073749;28;20045;-68
2022/11/28 07:36:05;;;;;;;15.73;12.23;;;7.90;99.90;;;;;;5073720;28;20040;-68
2022/11/28 07:38:31;;;;;;;16.85;13.45;;;8.00;99.90;;;;;;5074191;28;20048;-68
2022/11/28 07:41:08;;;;;;;15.15;12.13;;;7.90;99.90;;;;;;5073653;28;20060;-68
2022/11/28 07:43:34;;;;;;;16.42;12.93;;;8.00;99.90;;;;;;5073497;28;20080;-68
2022/11/28 07:46:04;;;;;;;14.13;12.18;;;7.90;99.90;;;;;;5073440;28;20084;-68
2022/11/28 07:48:30;;;;;;;15.35;11.80;;;8.00;99.90;;;;;;5074083;28;20043;-68
2022/11/28 07:50:55;;;;;;;14.63;11.27;;;7.90;99.90;;;;;;5073429;28;20045;-69
2022/11/28 07:53:21;;;;;;;15.50;11.20;;;8.00;99.90;;;;;;5073366;28;20409;-68
2022/11/28 07:55:46;;;;;;;11.77;10.55;;;8.00;99.90;;;;;;5073352;28;20083;-68
2022/11/28 07:58:12;;;;;;;14.02;11.75;;;8.00;99.90;;;;;;5073352;28;20037;-68
2022/11/28 08:00:38;;;;;;;14.05;11.05;;;8.00;99.90;;;;;;5073283;28;20040;-68
2022/11/28 08:03:03;;;;;;;14.07;11.00;;;8.00;99.90;;;;;;5072477;28;20052;-68
2022/11/28 08:05:29;;;;;;;13.70;10.80;;;7.90;99.90;;;;;;5073305;28;20048;-68
2022/11/28 08:07:54;;;;;;;12.68;10.90;;;8.00;99.90;;;;;;5073156;28;20557;-68
2022/11/28 08:10:21;;;;;;;11.98;10.07;;;8.00;99.90;;;;;;5073151;28;20459;-68
2022/11/28 08:12:46;;;;;;;14.88;10.43;;;8.00;99.90;;;;;;5073207;28;20032;-68
2022/11/28 08:15:12;;;;;;;10.75;9.65;;;8.00;99.90;;;;;;5073249;28;20405;-68
2022/11/28 08:17:38;;;;;;;11.50;9.95;;;8.00;99.90;;;;;;5072944;28;20383;-68
2022/11/28 08:20:04;;;;;;;12.55;9.27;;;8.00;99.90;;;;;;5073134;28;20041;-68
2022/11/28 08:22:30;;;;;;;11.32;9.63;;;8.00;99.90;;;;;;5073017;28;20406;-68
2022/11/28 08:24:55;;;;;;;13.77;9.32;;;8.00;99.90;;;;;;5072901;28;20048;-68
2022/11/28 08:27:21;;;;;;;9.70;8.70;;;8.00;99.90;;;;;;5072775;28;20075;-68
2022/11/28 08:29:46;;;;;;;9.57;8.63;;;8.00;99.90;;;;;;5072629;28;20124;-68
2022/11/28 08:32:12;;;;;;;10.63;9.13;;;8.00;99.90;;;;;;5072707;28;20064;-68
2022/11/28 08:34:37;;;;;;;9.35;7.90;;;8.00;99.90;;;;;;5072817;28;20456;-68
2022/11/28 08:37:03;;;;;;;10.52;8.80;;;8.00;99.90;;;;;;5072569;28;20553;-68
2022/11/28 08:39:28;;;;;;;9.93;8.63;;;8.00;99.90;;;;;;5072533;28;20078;-68
2022/11/28 08:41:58;;;;;;;8.98;8.07;;;8.00;99.90;;;;;;5072459;28;20045;-68
2022/11/28 08:44:25;;;;;;;8.77;7.88;;;8.00;99.90;;;;;;5072588;28;20102;-68
2022/11/28 08:46:51;;;;;;;10.32;8.63;;;8.10;99.90;;;;;;5072457;28;20056;-68
2022/11/28 08:49:17;;;;;;;9.32;8.38;;;8.00;99.90;;;;;;5072576;28;20037;-68
2022/11/28 08:51:43;;;;;;;12.50;8.75;;;8.10;99.90;;;;;;5073511;28;20519;-68
2022/11/28 08:54:09;;;;;;;12.85;8.23;;;8.10;99.90;;;;;;5072208;28;20044;-69
2022/11/28 08:56:34;;;;;;;9.55;8.25;;;8.10;99.90;;;;;;5072258;28;20115;-69
2022/11/28 08:59:00;;;;;;;9.43;8.52;;;8.10;99.90;;;;;;5072191;28;20036;-68
2022/11/28 09:01:26;;;;;;;8.82;7.55;;;8.10;99.90;;;;;;5072167;28;20071;-69
2022/11/28 09:03:53;;;;;;;7.47;6.78;;;8.10;99.90;;;;;;5072321;28;20481;-69
2022/11/28 09:06:20;;;;;;;9.38;7.20;;;8.10;99.90;;;;;;5055430;28;20043;-69
2022/11/28 09:08:47;;;;;;;9.77;6.97;;;8.10;99.90;;;;;;5072126;28;20115;-68
2022/11/28 09:11:16;;;;;;;8.52;7.57;;;8.10;99.90;;;;;;5071917;28;20386;-68
2022/11/28 09:13:42;;;;;;;6.97;6.28;;;8.10;99.90;;;;;;5071925;28;20058;-68
2022/11/28 09:16:08;;;;;;;7.95;7.15;;;8.10;99.90;;;;;;5071885;28;20036;-68
2022/11/28 09:18:34;;;;;;;7.70;7.00;;;8.10;99.90;;;;;;5072220;28;20119;-68
2022/11/28 09:21:02;;;;;;;8.13;7.32;;;8.10;99.90;;;;;;5071882;28;20123;-68
2022/11/28 09:23:28;;;;;;;7.95;7.15;;;8.10;99.90;;;;;;5071814;28;20048;-69
2022/11/28 09:25:54;;;;;;;8.73;7.40;;;8.10;99.90;;;;;;5071880;28;20052;-68
2022/11/28 09:28:20;;;;;;;7.85;6.97;;;8.10;99.90;;;;;;5072119;28;20044;-68
2022/11/28 09:30:45;;;;;;;7.15;6.45;;;8.20;99.90;;;;;;5071839;28;20511;-68
2022/11/28 09:33:12;;;;;;;7.95;6.72;;;8.20;99.90;;;;;;5071754;28;20447;-68
2022/11/28 09:35:39;;;;;;;8.80;6.90;;;8.20;99.90;;;;;;5072050;28;20051;-68
2022/11/28 09:38:05;;;;;;;10.32;6.80;;;8.20;99.90;;;;;;5071798;28;20071;-68
2022/11/28 09:40:36;;;;;;;9.40;6.63;;;8.20;99.90;;;;;;5071870;28;20055;-68
2022/11/28 09:43:05;;;;;;;9.48;6.80;;;8.30;99.90;;;;;;5071992;28;20497;-68
2022/11/28 09:45:32;;;;;;;6.95;6.18;;;8.20;99.90;;;;;;5071877;28;20048;-68
2022/11/28 09:48:11;;;;;;;6.82;6.13;;;8.20;99.90;;;;;;5072176;28;20056;-68
2022/11/28 09:50:40;;;;;;;8.50;6.75;;;8.30;99.90;;;;;;5071737;28;20131;-68
2022/11/28 09:53:37;;;;;;;7.90;7.10;;;8.20;99.90;;;;;;5072127;28;20079;-68
2022/11/28 09:56:17;;;;;;;8.85;7.45;;;8.20;99.90;;;;;;5071594;28;20040;-68
2022/11/28 09:58:59;;;;;;;8.00;6.32;;;8.30;99.90;;;;;;5071596;28;20082;-68
2022/11/28 10:01:39;;;;;;;8.77;7.10;;;8.30;99.90;;;;;;5071599;28;20059;-68
2022/11/28 10:04:24;;;;;;;8.20;7.22;;;8.30;99.90;;;;;;5072887;28;20101;-68
2022/11/28 10:07:20;;;;;;;8.55;7.13;;;8.30;99.90;;;;;;5071548;28;20056;-68
2022/11/28 10:09:45;;;;;;;8.23;7.13;;;8.30;99.90;;;;;;5052713;28;20175;-68
2022/11/28 10:12:25;;;;;;;8.15;6.45;;;8.30;99.90;;;;;;5071671;28;20503;-68
2022/11/28 10:15:09;;;;;;;9.07;7.75;;;8.30;99.90;;;;;;5071394;28;20055;-68
2022/11/28 10:17:55;;;;;;;9.55;7.78;;;8.30;99.90;;;;;;5071382;28;20047;-68
2022/11/28 10:20:25;;;;;;;9.93;7.80;;;8.30;99.90;;;;;;5071633;28;20049;-68
2022/11/28 10:22:56;;;;;;;8.48;7.60;;;8.30;99.90;;;;;;5071296;28;20051;-68
2022/11/28 10:25:44;;;;;;;7.80;7.00;;;8.40;99.90;;;;;;5071473;28;20072;-68
2022/11/28 10:28:20;;;;;;;9.73;7.68;;;8.40;99.90;;;;;;5074292;28;20048;-68
2022/11/28 10:30:52;;;;;;;8.77;7.80;;;8.40;99.90;;;;;;5075028;28;20416;-68
2022/11/28 10:33:38;;;;;;;8.57;7.32;;;8.40;99.90;;;;;;5074995;28;20040;-68
2022/11/28 10:36:05;;;;;;;8.75;7.45;;;8.50;99.90;;;;;;5075191;28;20047;-68
2022/11/28 10:38:33;;;;;;;9.77;7.25;;;8.50;99.90;;;;;;5074868;28;20041;-68
2022/11/28 10:41:33;;;;;;;9.93;7.28;;;8.50;99.90;;;;;;5074861;28;20051;-68
2022/11/28 10:44:17;;;;;;;7.80;7.00;;;8.50;99.90;;;;;;5074662;28;20414;-68
2022/11/28 10:46:53;;;;;;;8.20;7.35;;;8.60;99.90;;;;;;5074721;28;20497;-68
2022/11/28 10:49:25;;;;;;;10.25;7.65;;;8.50;99.90;;;;;;5074660;28;20513;-68
2022/11/28 10:52:11;;;;;;;8.43;6.93;;;8.50;99.90;;;;;;5074661;28;20044;-68
2022/11/28 10:54:53;;;;;;;8.40;7.60;;;8.60;99.90;;;;;;5074412;28;20485;-68
2022/11/28 10:57:34;;;;;;;8.32;6.82;;;8.60;99.90;;;;;;5074784;28;20041;-68
2022/11/28 11:00:11;;;;;;;7.97;7.18;;;8.60;99.90;;;;;;5074407;28;20127;-68
2022/11/28 11:02:43;;;;;;;8.32;7.50;;;8.70;99.90;;;;;;5074267;28;20044;-69
2022/11/28 11:05:15;;;;;;;8.05;6.97;;;8.70;99.90;;;;;;5074667;28;20501;-68
2022/11/28 11:07:56;;;;;;;7.55;6.75;;;8.70;99.90;;;;;;5074281;28;20565;-68
2022/11/28 11:10:30;;;;;;;9.10;7.47;;;8.70;99.90;;;;;;5074116;28;20050;-68
2022/11/28 11:12:57;;;;;;;8.00;7.20;;;8.70;99.90;;;;;;5075908;28;20040;-68
2022/11/28 11:15:31;;;;;;;8.57;7.40;;;8.70;99.90;;;;;;5074125;28;20090;-68
2022/11/28 11:18:01;;;;;;;8.57;7.22;;;8.70;99.90;;;;;;5074103;28;20409;-68
2022/11/28 11:20:37;;;;;;;9.55;7.22;;;8.70;99.90;;;;;;5074391;28;20067;-68
2022/11/28 11:23:24;;;;;;;9.25;7.45;;;8.80;99.90;;;;;;5074248;28;20080;-69
2022/11/28 11:25:59;;;;;;;9.32;6.97;;;8.80;99.90;;;;;;5074301;28;20061;-68
2022/11/28 11:28:31;;;;;;;8.45;7.07;;;8.80;99.90;;;;;;5074222;28;20412;-68
2022/11/28 11:30:59;;;;;;;8.20;7.25;;;8.80;99.90;;;;;;5073884;28;20109;-68
2022/11/28 11:33:29;;;;;;;9.98;7.90;;;8.80;99.90;;;;;;5073784;28;20120;-69
2022/11/28 11:35:54;;;;;;;9.48;7.75;;;8.90;99.90;;;;;;5073840;28;20032;-69
2022/11/28 11:38:20;;;;;;;10.05;7.63;;;8.90;99.90;;;;;;5072519;28;20102;-68
2022/11/28 11:40:49;;;;;;;8.95;7.60;;;8.90;99.90;;;;;;5073980;28;20174;-68
2022/11/28 11:43:30;;;;;;;10.45;7.57;;;8.90;99.90;;;;;;5073846;28;20132;-68
2022/11/28 11:46:08;;;;;;;9.52;8.02;;;8.90;99.90;;;;;;5073519;28;20127;-69
2022/11/28 11:48:44;;;;;;;8.15;6.45;;;8.90;99.90;;;;;;5073557;28;20045;-68
2022/11/28 11:51:30;;;;;;;8.43;7.53;;;8.90;99.90;;;;;;5073517;28;20131;-68
2022/11/28 11:54:17;;;;;;;9.23;7.82;;;8.90;99.90;;;;;;5073433;28;20119;-68
2022/11/28 11:56:46;;;;;;;8.57;7.68;;;8.90;99.90;;;;;;5073392;28;20443;-69
2022/11/28 11:59:38;;;;;;;10.80;8.80;;;8.90;99.90;;;;;;5073335;28;20080;-68
2022/11/28 12:02:32;;;;;;;8.35;7.50;;;8.90;99.90;;;;;;5073544;28;20444;-68
2022/11/28 12:05:10;;;;;;;9.32;7.28;;;8.90;99.90;;;;;;5073318;28;20166;-68
2022/11/28 12:07:47;;;;;;;8.45;7.57;;;8.90;99.90;;;;;;5073358;28;20075;-68
2022/11/28 12:10:17;;;;;;;10.98;8.25;;;8.90;99.90;;;;;;5073096;28;20036;-68
2022/11/28 12:12:43;;;;;;;8.63;7.72;;;8.90;99.90;;;;;;5073002;28;20044;-69
2022/11/28 12:15:19;;;;;;;10.23;8.32;;;8.90;99.90;;;;;;5073005;28;20037;-69
2022/11/28 12:17:53;;;;;;;8.55;7.55;;;9.00;99.90;;;;;;5073020;28;20036;-73
2022/11/28 12:20:41;;;;;;;8.77;7.60;;;9.00;99.90;;;;;;5072963;28;20044;-68
2022/11/28 12:23:36;;;;;;;9.15;7.45;;;9.00;99.90;;;;;;5072899;28;20040;-68
2022/11/28 12:26:19;;;;;;;8.70;6.95;;;9.00;99.90;;;;;;5073105;28;20071;-68
2022/11/28 12:28:58;;;;;;;8.68;7.40;;;9.00;99.90;;;;;;5072848;28;20048;-72
2022/11/28 12:31:47;;;;;;;12.32;8.20;;;9.00;99.90;;;;;;5072668;28;20037;-68
2022/11/28 12:34:38;;;;;;;7.32;6.45;;;9.10;99.90;;;;;;5072907;28;20049;-68
2022/11/28 12:37:32;;;;;;;8.68;7.32;;;9.00;99.90;;;;;;5072875;28;20044;-68
2022/11/28 12:40:20;;;;;;;9.02;6.72;;;9.00;99.90;;;;;;5072611;28;20055;-68
2022/11/28 12:43:17;;;;;;;9.63;6.85;;;9.10;99.90;;;;;;5072449;28;20451;-68
2022/11/28 12:45:45;;;;;;;9.05;7.35;;;9.00;99.90;;;;;;5072593;28;20040;-68
2022/11/28 12:48:16;;;;;;;9.23;7.13;;;9.00;99.90;;;;;;5072634;28;20127;-68
2022/11/28 12:50:45;;;;;;;7.25;6.55;;;9.00;99.90;;;;;;5071978;28;20040;-68
2022/11/28 12:53:26;;;;;;;8.85;6.18;;;9.00;99.90;;;;;;5072265;28;20493;-68
2022/11/28 12:56:11;;;;;;;9.48;6.53;;;9.10;99.90;;;;;;5072306;28;20145;-68
2022/11/28 12:58:45;;;;;;;7.95;6.72;;;9.00;99.90;;;;;;5072561;28;20059;-68
2022/11/28 13:01:43;;;;;;;8.02;7.20;;;9.00;99.90;;;;;;5072159;28;20040;-68
2022/11/28 13:04:36;;;;;;;8.65;6.88;;;9.00;99.90;;;;;;5072138;28;20048;-68
2022/11/28 13:07:30;;;;;;;9.25;6.60;;;9.00;99.90;;;;;;5072518;28;20523;-68
2022/11/28 13:10:24;;;;;;;7.20;6.50;;;9.10;99.90;;;;;;5072262;28;20053;-68
2022/11/28 13:13:08;;;;;;;8.13;7.28;;;9.10;99.90;;;;;;5072629;28;20119;-69
2022/11/28 13:16:05;;;;;;;8.18;6.85;;;9.00;99.90;;;;;;5072587;28;20072;-69